Terminal Aerodrome Forecast
Issued by NWS

Home | Current Version | Previous Version | Text Only | Print | Product List | Glossary On
Versions: 1 2 3 4 5 6 7 8 9 10 11 12 13 14 15 16 17 18 19
000
FTUS43 KILX 290522
TAFCMI
TAF
KCMI 290522Z 2906/3006 16008KT P6SM SCT080 BKN250
     FM291500 18012KT P6SM VCTS SCT035 BKN050CB
     FM291900 19012G17KT P6SM BKN035
     FM300000 20010KT P6SM VCTS BKN045CB
     FM300300 20008KT 6SM -SHRA VCTS OVC040CB=

USA.gov is the U.S. government's official web portal to all federal, state and local government web resources and services.